VUOPEARSON FLD
METARs for airports near VUO, sorted by distance:
N 0 nm 28' KVUO 032153Z 19008KT 10SM OVC020 06/02 A2977
SE 3 nm 30' KPDX 032153Z 20013G21KT 10SM BKN022 BKN046 BKN070 07/02 A2976
E 11 nm 38' KTTD 032216Z 22013KT 10SM FEW020 BKN028 BKN050 07/03 A2976
NW 12 nm 58' KSPB 032153Z 00000KT 9SM -RA BKN027 OVC035 04/02 A2976
W 13 nm 207' KHIO 032154Z 22009KT 10SM BKN010 BKN015 OVC022 05/03 A2974
S 22 nm 199' KUAO 032153Z 20011KT 170V230 8SM -RA BKN013 BKN020 OVC038 04/03 A2977
N 31 nm 20' KKLS 032207Z 16007KT 10SM -RA SCT007 BKN041 OVC055 03/02 A2976
SW 32 nm 162' KMMV 032241Z 10SM BKN014 OVC100 03/02 A2977
S 45 nm 213' KSLE 032156Z 18015G20KT 10SM BKN009 BKN015 05/03 A2978
W 50 nm 39' KTMK 021935Z 14010KT 10SM BKN028 BKN033 OVC055 04/04 A2954
NW 60 nm 14' KAST 032239Z 10SM FEW027 SCT033 BKN046 05/03 A2972
E 62 nm 246' KDLS 032153Z 34006KT 10SM FEW055 BKN070 BKN090 08/M01 A2971
N 64 nm 177' KCLS 032235Z 17008G14KT 150V210 10SM BKN013 04/04 A2972
S 72 nm 249' KCVO 032156Z 20012KT 10SM FEW010 BKN065 04/02 A2981
N 81 nm 207' KOLM 032154Z 18012KT 10SM FEW012 OVC018 04/02 A2970
SW 86 nm 160' KONP 032235Z 19011G18KT 05/03 A2980
N 87 nm 301' KGRF 032230Z 17012G20KT 10SM SCT016 BKN150 BKN170 05/01 A2967
N 90 nm 537' KPLU 032235Z 19007KT 10SM 05/02 A2969
N 91 nm 322' KTCM 032245Z 19010KT 10SM BKN019 OVC043 06/02 A2969
S 92 nm 373' KEUG 032154Z 15012KT 9SM -RA SCT012 BKN029 OVC060 04/03 A2982
NW 96 nm 17' KHQM 032153Z 18010KT 9SM -RA BKN021 BKN026 OVC032 05/03 A2968
N 98 nm 272' KSHN 032153Z 20009KT 10SM BKN021 BKN027 06/02 A2965
N 98 nm 294' KTIW 032153Z 20015G22KT 10SM OVC019 04/01 A2969
TAFs for airports near VUO, sorted by distance:
SE 3 nm 30' KPDX KPDX 032053Z 0321/0418 20012KT P6SM -SHRA SCT015 BKN035 OVC050
  TEMPO 0401/0403 BKN025 OVC030
  FM040800 20005KT P6SM -SHRASN BKN025 OVC035
  FM041400 17004KT P6SM -SHRA SCT008 OVC015
E 11 nm 38' KTTD KTTD 031744Z 0318/0418 20004KT P6SM -SHRA SCT020 BKN045
  TEMPO 0318/0321 BKN020
  FM032200 20007KT P6SM -SHRA SCT025 OVC035
  FM040800 20005KT P6SM -SHRASN BKN025 OVC035
W 13 nm 207' KHIO KHIO 032058Z 0321/0418 17008KT 6SM -SHRA BR BKN008 BKN015
  FM040000 20009KT P6SM -SHRA SCT015 BKN025 OVC035
  FM040400 21005KT P6SM -SHRA BKN025 OVC035
  FM040800 21002KT P6SM -SHRASN OVC015
S 22 nm 199' KUAO KUAO 031744Z 0318/0418 19010G20KT P6SM -SHRA BKN015 BKN070
  FM032000 19010KT P6SM -SHRA SCT015 OVC025
  FM040400 20005KT P6SM -SHRA SCT025 BKN030
  FM040800 20004KT P6SM -SHRASN OVC015
S 45 nm 213' KSLE KSLE 032104Z 0321/0418 18013G24KT P6SM -SHRA BKN009 OVC025
  FM040100 19010KT P6SM -SHRA BKN015 OVC030
  FM040800 18007KT P6SM -SHRASN BKN015 OVC025
NW 60 nm 14' KAST TAF KAST 031744Z 0318/0418 22010KT P6SM -SHRA VCTS SCT025 OVC035CB
  TEMPO 0318/0322 5SM -SHRA SCT015 BKN025
  FM032300 26010KT P6SM -SHRA SCT025 OVC050
E 62 nm 246' KDLS KDLS 031728Z 0318/0418 VRB02KT P6SM OVC070
  FM032000 31005KT P6SM VCSH OVC040
  TEMPO 0400/0404 -SHRASN
  FM041200 31004KT P6SM BKN250
  FM041600 31003KT P6SM OVC080
N 81 nm 207' KOLM KOLM 031733Z 0318/0418 18010KT 2SM -SHSNRA FEW006 OVC015
  FM032000 20007KT 4SM -SHRA OVC015
  FM040600 19008KT P6SM OVC040
  FM040900 21008KT P6SM OVC030
SW 86 nm 160' KONP KONP 031744Z 0318/0418 15007KT P6SM -SHRA VCTS SCT015CB BKN050
  TEMPO 0318/0322 BKN015CB
  FM032200 25010G20KT P6SM -SHRA SCT025 OVC050
  AMD LTD TO WIND
N 87 nm 301' KGRF TAF KGRF 032100Z 0321/0503 17015G20KT 9999 VCSH SCT015 BKN030 OVC055 QNH2967INS
  TEMPO 0321/0401 OVC012
  BECMG 0403/0404 19012G18KT 9999 -SHRA SCT015 BKN025 OVC040 QNH2966INS
  BECMG 0410/0411 20012G18KT 9999 NSW BKN025 OVC050 QNH2975INS
  BECMG 0500/0501 18012KT 9999 -SHRA BKN010 OVC025 QNH2985INS TX06/0419Z TN02/0411Z
N 91 nm 322' KTCM TAF
  AMD KTCM 031531Z 0315/0419 16005KT 9999 BKN040 OVC060 620409 QNH2958INS
  BECMG 0318/0319 19012G20KT 9000 -SHRA BKN050 610509 510006 QNH2964INS
  BECMG 0323/0324 19009KT 9999 VCSH BKN050 610509 QNH2964INS
  BECMG 0403/0404 21006KT 9000 -SHRA BKN020 OVC030 610209 QNH2967INS
  BECMG 0410/0411 21006KT 9999 NSW BKN030 620309 QNH2977INS TX06/0322Z TN00/0412Z LAST NO
  AMDS AFT 0315 NEXT 0413
S 92 nm 373' KEUG KEUG 032101Z 0321/0418 16012KT 5SM -SHRA BR BKN025 OVC050
  FM040100 20010KT P6SM -SHRA SCT030 OVC050
  FM040400 13008KT P6SM -SHRA SCT015 BKN050
  FM040800 18006KT P6SM -SHRASN BKN025 OVC050
NW 96 nm 17' KHQM KHQM 031733Z 0318/0418 16013KT P6SM -SHRA SCT035 BKN040 OVC050
  FM032000 19008KT P6SM -SHRA BKN035 OVC050
  FM040600 25006KT P6SM VCSH OVC015
  FM041200 29006KT P6SM BKN050

Shortcut to this page: http://wxbay.com.

Data may contain errors.